Terminal Aerodrome Forecast
Issued by NWS Hastings, NE

Home | Current Version | Previous Version | Text Only | Print | Product List | Glossary On
Versions: 1 2 3 4 5 6 7 8 9 10 11 12 13
000
FTUS45 KGID 221720
TAFEAR
TAF
KEAR 221720Z 2218/2318 18012G18KT P6SM BKN250
     FM230000 16010KT P6SM VCSH BKN050 OVC080
     FM230400 14012KT 5SM -RA SCT010 BKN030
     FM231300 18012G18KT 6SM -SHRA SCT010 BKN030
      AMD LTD TO CLD VIS AND WIND=

USA.gov is the U.S. government's official web portal to all federal, state and local government web resources and services.